createdAt,value
2023-05-01T00:00:57.778Z,7.09
2023-05-01T00:03:25.768Z,7.03
2023-05-01T00:06:00.719Z,6.96
2023-05-01T00:08:28.678Z,6.93
2023-05-01T00:10:56.498Z,6.89
2023-05-01T00:13:24.508Z,6.88
2023-05-01T00:15:52.698Z,6.82
2023-05-01T00:18:20.514Z,6.76
2023-05-01T00:20:48.335Z,6.75
2023-05-01T00:23:17.476Z,6.74
2023-05-01T00:25:45.144Z,6.68
2023-05-01T00:28:12.908Z,6.68
2023-05-01T00:30:40.832Z,6.66
2023-05-01T00:33:08.739Z,6.67
2023-05-01T00:35:36.685Z,6.59
2023-05-01T00:38:04.451Z,6.48
2023-05-01T00:40:33.489Z,6.36
2023-05-01T00:43:01.184Z,6.26
2023-05-01T00:45:28.973Z,6.21
2023-05-01T00:47:56.771Z,6.24
2023-05-01T00:50:24.467Z,6.17
2023-05-01T00:52:52.238Z,6.09
2023-05-01T00:55:20.275Z,6.00
2023-05-01T00:57:49.352Z,5.93
2023-05-01T01:00:19.320Z,5.91
2023-05-01T01:02:47.805Z,5.98
2023-05-01T01:05:16.077Z,5.97
2023-05-01T01:07:54.550Z,5.96
2023-05-01T01:10:32.344Z,5.85
2023-05-01T01:13:20.270Z,5.84
2023-05-01T01:15:54.749Z,5.83
2023-05-01T01:18:28.320Z,5.79
2023-05-01T01:21:01.934Z,5.74
2023-05-01T01:24:04.196Z,5.62
2023-05-01T01:26:53.139Z,5.59
2023-05-01T01:29:50.823Z,5.51
2023-05-01T01:32:41.553Z,5.43
2023-05-01T01:35:16.225Z,5.36
2023-05-01T01:37:50.996Z,5.39
2023-05-01T01:40:23.434Z,5.32
2023-05-01T01:42:56.460Z,5.36
2023-05-01T01:45:26.813Z,5.28
2023-05-01T01:47:57.116Z,5.23
2023-05-01T01:50:29.533Z,5.10
2023-05-01T01:53:01.254Z,4.98
2023-05-01T01:55:30.888Z,4.85
2023-05-01T01:58:00.672Z,4.76
2023-05-01T02:00:29.849Z,4.71
2023-05-01T02:03:01.232Z,4.66
2023-05-01T02:05:33.285Z,4.61
2023-05-01T02:08:01.448Z,4.55
2023-05-01T02:10:30.578Z,4.60
2023-05-01T02:13:00.054Z,4.64
2023-05-01T02:15:29.844Z,4.60
2023-05-01T02:17:59.299Z,4.57
2023-05-01T02:20:27.692Z,4.68
2023-05-01T02:22:58.560Z,4.65
2023-05-01T02:25:29.554Z,4.61
2023-05-01T02:28:00.813Z,4.60
2023-05-01T02:30:28.631Z,4.53
2023-05-01T02:32:57.536Z,4.44
2023-05-01T02:35:25.350Z,4.42
2023-05-01T02:37:53.235Z,4.38
2023-05-01T02:40:22.535Z,4.31
2023-05-01T02:42:52.619Z,4.25
2023-05-01T02:45:23.291Z,4.24
2023-05-01T02:47:55.799Z,4.27
2023-05-01T02:50:24.442Z,4.19
2023-05-01T02:52:52.511Z,4.18
2023-05-01T02:55:21.898Z,4.28
2023-05-01T02:57:51.841Z,4.31
2023-05-01T03:00:20.790Z,4.30
2023-05-01T03:02:48.683Z,4.30
2023-05-01T03:05:16.624Z,4.29
2023-05-01T03:07:44.585Z,4.31
2023-05-01T03:10:12.797Z,4.20
2023-05-01T03:12:41.875Z,4.14
2023-05-01T03:15:11.296Z,4.08
2023-05-01T03:17:39.005Z,4.13
2023-05-01T03:20:09.486Z,4.19
2023-05-01T03:22:37.328Z,4.19
2023-05-01T03:25:05.332Z,4.10
2023-05-01T03:27:33.009Z,4.04
2023-05-01T03:30:02.055Z,4.12
2023-05-01T03:32:30.130Z,4.11
2023-05-01T03:34:58.043Z,4.08
2023-05-01T03:37:26.068Z,4.08
2023-05-01T03:39:54.171Z,4.10
2023-05-01T03:42:22.001Z,4.03
2023-05-01T03:44:49.832Z,4.01
2023-05-01T03:47:19.190Z,3.99
2023-05-01T03:49:46.887Z,3.96
2023-05-01T03:52:14.624Z,4.02
2023-05-01T03:54:42.360Z,4.02
2023-05-01T03:57:10.236Z,3.99
2023-05-01T03:59:38.117Z,3.97
2023-05-01T04:02:06.161Z,3.93
2023-05-01T04:04:36.140Z,3.93
2023-05-01T04:07:03.964Z,3.88
2023-05-01T04:09:31.799Z,3.97
2023-05-01T04:11:59.635Z,4.01
2023-05-01T04:14:27.299Z,4.06
2023-05-01T04:16:55.220Z,4.07
2023-05-01T04:19:22.883Z,4.06
2023-05-01T04:21:52.179Z,4.14
2023-05-01T04:24:19.942Z,4.14
2023-05-01T04:26:47.611Z,4.15
2023-05-01T04:29:15.284Z,4.19
2023-05-01T04:31:43.352Z,4.19
2023-05-01T04:34:11.104Z,4.25
2023-05-01T04:36:38.887Z,4.23
2023-05-01T04:39:10.502Z,4.29
2023-05-01T04:41:38.233Z,4.43
2023-05-01T04:44:06.321Z,4.47
2023-05-01T04:46:34.467Z,4.51
2023-05-01T04:49:02.139Z,4.55
2023-05-01T04:51:30.187Z,4.59
2023-05-01T04:53:57.995Z,4.65
2023-05-01T04:56:27.988Z,4.86
2023-05-01T04:58:55.661Z,5.01
2023-05-01T05:01:23.321Z,5.08
2023-05-01T05:03:53.237Z,5.19
2023-05-01T05:06:21.233Z,5.27
2023-05-01T05:08:51.845Z,5.36
2023-05-01T05:11:19.831Z,5.56
2023-05-01T05:13:49.043Z,5.65
2023-05-01T05:16:17.480Z,5.81
2023-05-01T05:18:45.285Z,6.02
2023-05-01T05:21:13.064Z,6.20
2023-05-01T05:23:40.839Z,6.42
2023-05-01T05:26:08.562Z,6.62
2023-05-01T05:28:36.236Z,6.83
2023-05-01T05:31:05.331Z,7.01
2023-05-01T05:33:33.132Z,7.17
2023-05-01T05:36:00.776Z,7.45
2023-05-01T05:38:28.663Z,7.65
2023-05-01T05:40:56.325Z,7.80
2023-05-01T05:43:25.989Z,7.97
2023-05-01T05:45:58.133Z,8.10
2023-05-01T05:48:27.702Z,8.23
2023-05-01T05:50:56.020Z,8.34
2023-05-01T05:53:25.739Z,8.38
2023-05-01T05:55:53.820Z,8.51
2023-05-01T05:58:22.495Z,8.61
2023-05-01T06:00:52.989Z,8.78
2023-05-01T06:03:21.094Z,8.80
2023-05-01T06:05:50.628Z,8.89
2023-05-01T06:08:18.413Z,8.96
2023-05-01T06:10:46.304Z,8.83
2023-05-01T06:13:15.064Z,9.06
2023-05-01T06:15:43.093Z,9.17
2023-05-01T06:18:11.784Z,9.11
2023-05-01T06:20:39.885Z,9.23
2023-05-01T06:23:09.997Z,9.43
2023-05-01T06:25:38.286Z,9.50
2023-05-01T06:28:09.180Z,9.71
2023-05-01T06:30:36.836Z,9.75
2023-05-01T06:33:04.748Z,9.92
2023-05-01T06:35:32.763Z,9.90
2023-05-01T06:38:00.559Z,9.83
2023-05-01T06:40:31.590Z,10.05
2023-05-01T06:42:59.419Z,10.03
2023-05-01T06:45:27.229Z,10.27
2023-05-01T06:47:55.018Z,10.27
2023-05-01T06:50:22.765Z,10.35
2023-05-01T06:52:50.574Z,10.42
2023-05-01T06:55:18.245Z,10.53
2023-05-01T06:57:47.291Z,10.61
2023-05-01T07:00:17.549Z,10.76
2023-05-01T07:02:46.060Z,10.81
2023-05-01T07:05:13.906Z,10.96
2023-05-01T07:07:47.265Z,11.06
2023-05-01T07:10:18.192Z,11.09
2023-05-01T07:12:47.482Z,11.22
2023-05-01T07:15:16.348Z,11.32
2023-05-01T07:17:44.530Z,11.40
2023-05-01T07:20:13.791Z,11.54
2023-05-01T07:22:41.431Z,11.56
2023-05-01T07:25:09.857Z,11.58
2023-05-01T07:27:41.595Z,11.62
2023-05-01T07:30:13.462Z,11.80
2023-05-01T07:32:41.683Z,11.81
2023-05-01T07:35:10.093Z,11.81
2023-05-01T07:37:37.852Z,12.09
2023-05-01T07:40:07.370Z,12.29
2023-05-01T07:42:35.062Z,12.23
2023-05-01T07:45:02.955Z,12.41
2023-05-01T07:47:32.033Z,12.68
2023-05-01T07:50:00.941Z,12.62
2023-05-01T07:52:28.732Z,12.62
2023-05-01T07:54:56.698Z,12.57
2023-05-01T07:57:26.102Z,12.68
2023-05-01T07:59:56.498Z,12.68
2023-05-01T08:02:24.457Z,12.63
2023-05-01T08:04:53.804Z,12.52
2023-05-01T08:07:23.740Z,12.41
2023-05-01T08:09:51.447Z,12.42
2023-05-01T08:12:19.136Z,12.46
2023-05-01T08:14:46.836Z,12.38
2023-05-01T08:17:15.062Z,12.43
2023-05-01T08:19:42.760Z,12.44
2023-05-01T08:22:11.961Z,12.38
2023-05-01T08:24:40.880Z,12.66
2023-05-01T08:27:08.937Z,12.74
2023-05-01T08:29:36.635Z,12.63
2023-05-01T08:32:04.628Z,12.63
2023-05-01T08:34:32.401Z,12.69
2023-05-01T08:37:02.786Z,12.56
2023-05-01T08:39:31.863Z,12.57
2023-05-01T08:42:00.476Z,12.62
2023-05-01T08:44:29.556Z,12.73
2023-05-01T08:47:09.406Z,12.49
2023-05-01T08:49:38.736Z,12.36
2023-05-01T08:52:07.519Z,12.37
2023-05-01T08:54:42.963Z,12.52
2023-05-01T08:57:15.369Z,12.44
2023-05-01T08:59:43.150Z,12.38
2023-05-01T09:02:12.748Z,12.44
2023-05-01T09:04:45.624Z,12.40
2023-05-01T09:07:17.732Z,12.33
2023-05-01T09:09:46.815Z,12.36
2023-05-01T09:12:23.080Z,12.44
2023-05-01T09:14:51.201Z,12.32
2023-05-01T09:17:19.646Z,12.07
2023-05-01T09:19:47.906Z,12.05
2023-05-01T09:22:16.533Z,12.09
2023-05-01T09:24:46.062Z,11.94
2023-05-01T09:27:14.545Z,11.82
2023-05-01T09:29:45.654Z,12.00
2023-05-01T09:32:18.028Z,12.13
2023-05-01T09:34:47.627Z,12.14
2023-05-01T09:37:27.629Z,11.91
2023-05-01T09:40:08.762Z,11.80
2023-05-01T09:42:38.723Z,11.77
2023-05-01T09:45:13.037Z,11.88
2023-05-01T09:47:40.827Z,11.88
2023-05-01T09:50:09.680Z,12.04
2023-05-01T09:52:40.175Z,11.90
2023-05-01T09:55:25.389Z,11.90
2023-05-01T09:57:53.809Z,11.80
2023-05-01T10:00:24.964Z,11.78
2023-05-01T10:02:56.583Z,11.79
2023-05-01T10:05:24.808Z,11.74
2023-05-01T10:07:59.796Z,11.61
2023-05-01T10:10:29.222Z,11.47
2023-05-01T10:12:56.986Z,11.32
2023-05-01T10:15:37.117Z,11.34
2023-05-01T10:18:05.833Z,11.34
2023-05-01T10:20:33.770Z,11.28
2023-05-01T10:23:06.513Z,11.19
2023-05-01T10:25:39.580Z,11.15
2023-05-01T10:28:09.681Z,11.04
2023-05-01T10:30:39.124Z,10.94
2023-05-01T10:33:07.008Z,10.98
2023-05-01T10:35:41.769Z,10.92
2023-05-01T10:38:12.553Z,10.88
2023-05-01T10:40:49.712Z,10.91
2023-05-01T10:43:20.976Z,10.90
2023-05-01T10:45:49.632Z,10.86
2023-05-01T10:48:58.073Z,10.93
2023-05-01T10:51:29.085Z,10.86
2023-05-01T10:54:27.649Z,10.91
2023-05-01T10:57:00.197Z,10.85
2023-05-01T10:59:28.219Z,10.76
2023-05-01T11:01:55.944Z,10.71
2023-05-01T11:04:54.147Z,10.68
2023-05-01T11:07:23.352Z,10.79
2023-05-01T11:09:55.037Z,10.77
2023-05-01T11:12:53.058Z,10.45
2023-05-01T11:15:28.073Z,10.53
2023-05-01T11:17:56.190Z,10.70
2023-05-01T11:21:00.574Z,10.74
2023-05-01T11:23:32.580Z,10.88
2023-05-01T11:26:07.359Z,10.99
2023-05-01T11:28:39.176Z,10.91
2023-05-01T11:31:10.739Z,10.87
2023-05-01T11:33:40.135Z,10.93
2023-05-01T11:36:09.227Z,10.92
2023-05-01T11:38:36.988Z,10.84
2023-05-01T11:41:05.425Z,10.78
2023-05-01T11:43:33.350Z,10.79
2023-05-01T11:46:05.169Z,10.88
2023-05-01T11:48:33.311Z,10.96
2023-05-01T11:51:15.951Z,11.12
2023-05-01T11:54:03.456Z,11.43
2023-05-01T11:56:39.845Z,11.91
2023-05-01T11:59:15.664Z,12.03
2023-05-01T12:01:46.027Z,12.23
2023-05-01T12:04:18.999Z,12.14
2023-05-01T12:06:48.198Z,12.45
2023-05-01T12:09:18.618Z,12.33
2023-05-01T12:11:47.432Z,12.16
2023-05-01T12:14:16.442Z,12.24
2023-05-01T12:16:46.668Z,12.30
2023-05-01T12:19:16.299Z,12.40
2023-05-01T12:21:46.533Z,12.47
2023-05-01T12:24:19.669Z,12.67
2023-05-01T12:26:47.879Z,12.47
2023-05-01T12:29:18.467Z,12.36
2023-05-01T12:31:55.184Z,12.34
2023-05-01T12:34:33.311Z,12.35
2023-05-01T12:37:01.602Z,12.28
2023-05-01T12:39:39.472Z,12.31
2023-05-01T12:42:14.171Z,12.50
2023-05-01T12:44:42.164Z,12.55
2023-05-01T12:47:11.324Z,12.88
2023-05-01T12:49:42.895Z,13.09
2023-05-01T12:52:10.931Z,13.04
2023-05-01T12:54:40.799Z,13.13
2023-05-01T12:57:11.752Z,13.23
2023-05-01T12:59:46.134Z,13.49
2023-05-01T13:02:22.560Z,13.46
2023-05-01T13:04:51.208Z,13.33
2023-05-01T13:07:20.234Z,13.30
2023-05-01T13:09:54.941Z,13.07
2023-05-01T13:12:23.145Z,13.10
2023-05-01T13:14:51.863Z,12.50
2023-05-01T13:17:26.351Z,12.87
2023-05-01T13:19:58.205Z,13.20
2023-05-01T13:22:33.344Z,13.51
2023-05-01T13:25:04.191Z,13.72
2023-05-01T13:27:32.221Z,13.78
2023-05-01T13:30:02.769Z,13.56
2023-05-01T13:32:32.942Z,13.75
2023-05-01T13:35:02.300Z,13.98
2023-05-01T13:37:30.530Z,13.80
2023-05-01T13:39:59.622Z,13.53
2023-05-01T13:42:27.553Z,13.50
2023-05-01T13:44:57.452Z,13.78
2023-05-01T13:47:27.121Z,13.52
2023-05-01T13:49:57.726Z,13.47
2023-05-01T13:52:28.805Z,13.61
2023-05-01T13:54:58.327Z,13.86
2023-05-01T13:57:34.136Z,14.05
2023-05-01T14:00:01.819Z,13.93
2023-05-01T14:02:31.521Z,14.08
2023-05-01T14:05:01.095Z,14.25
2023-05-01T14:07:29.301Z,14.47
2023-05-01T14:09:57.922Z,14.53
2023-05-01T14:12:29.119Z,14.65
2023-05-01T14:14:57.184Z,14.72
2023-05-01T14:17:27.748Z,15.08
2023-05-01T14:20:09.518Z,15.33
2023-05-01T14:22:49.214Z,15.48
2023-05-01T14:25:37.938Z,15.34
2023-05-01T14:28:09.436Z,15.11
2023-05-01T14:30:38.662Z,15.33
2023-05-01T14:33:08.376Z,15.48
2023-05-01T14:35:38.067Z,14.94
2023-05-01T14:38:10.580Z,14.85
2023-05-01T14:40:41.763Z,15.04
2023-05-01T14:43:10.547Z,14.86
2023-05-01T14:45:42.581Z,14.78
2023-05-01T14:48:28.265Z,14.78
2023-05-01T14:50:58.363Z,14.85
2023-05-01T14:53:27.394Z,14.69
2023-05-01T14:55:55.172Z,14.58
2023-05-01T14:58:22.904Z,14.38
2023-05-01T15:00:50.652Z,14.14
2023-05-01T15:03:18.380Z,13.96
2023-05-01T15:05:46.509Z,14.03
2023-05-01T15:08:15.609Z,13.96
2023-05-01T15:10:44.053Z,13.89
2023-05-01T15:13:11.795Z,13.80
2023-05-01T15:15:39.509Z,13.85
2023-05-01T15:18:07.329Z,13.73
2023-05-01T15:20:35.086Z,13.70
2023-05-01T15:23:02.806Z,13.63
2023-05-01T15:25:32.211Z,13.52
2023-05-01T15:27:59.875Z,13.35
2023-05-01T15:30:27.527Z,13.23
2023-05-01T15:32:55.960Z,13.19
2023-05-01T15:35:24.391Z,13.15
2023-05-01T15:37:52.705Z,13.13
2023-05-01T15:40:20.519Z,12.98
2023-05-01T15:42:50.382Z,12.89
2023-05-01T15:45:18.209Z,12.75
2023-05-01T15:47:46.164Z,12.51
2023-05-01T15:50:14.399Z,12.31
2023-05-01T15:52:42.124Z,12.10
2023-05-01T15:55:10.128Z,11.98
2023-05-01T15:57:39.949Z,11.74
2023-05-01T16:00:10.653Z,11.59
2023-05-01T16:02:38.453Z,11.52
2023-05-01T16:05:07.090Z,11.31
2023-05-01T16:07:34.912Z,11.10
2023-05-01T16:10:03.687Z,10.89
2023-05-01T16:12:32.060Z,10.78
2023-05-01T16:15:02.275Z,10.74
2023-05-01T16:17:32.669Z,10.73
2023-05-01T16:20:01.568Z,10.68
2023-05-01T16:22:29.735Z,10.70
2023-05-01T16:25:00.159Z,10.68
2023-05-01T16:27:27.872Z,10.69
2023-05-01T16:29:55.775Z,10.71
2023-05-01T16:32:24.111Z,10.64
2023-05-01T16:34:53.376Z,10.65
2023-05-01T16:37:24.445Z,10.63
2023-05-01T16:39:52.105Z,10.61
2023-05-01T16:42:19.851Z,10.60
2023-05-01T16:44:47.697Z,10.61
2023-05-01T16:47:16.530Z,10.63
2023-05-01T16:49:44.398Z,10.69
2023-05-01T16:52:15.597Z,10.72
2023-05-01T16:54:43.317Z,10.71
2023-05-01T16:57:11.297Z,10.67
2023-05-01T16:59:39.088Z,10.67
2023-05-01T17:02:07.844Z,10.63
2023-05-01T17:04:35.752Z,10.62
2023-05-01T17:07:03.749Z,10.63
2023-05-01T17:09:33.248Z,10.64
2023-05-01T17:12:00.919Z,10.65
2023-05-01T17:14:30.372Z,10.67
2023-05-01T17:16:59.142Z,10.67
2023-05-01T17:19:27.111Z,10.70
2023-05-01T17:21:54.821Z,10.73
2023-05-01T17:24:22.533Z,10.73
2023-05-01T17:26:51.892Z,10.70
2023-05-01T17:29:19.556Z,10.68
2023-05-01T17:31:47.329Z,10.69
2023-05-01T17:34:15.050Z,10.70
2023-05-01T17:36:42.692Z,10.68
2023-05-01T17:39:10.394Z,10.65
2023-05-01T17:41:38.575Z,10.69
2023-05-01T17:44:07.740Z,10.65
2023-05-01T17:46:35.650Z,10.69
2023-05-01T17:49:04.538Z,10.70
2023-05-01T17:51:32.887Z,10.71
2023-05-01T17:54:01.408Z,10.69
2023-05-01T17:56:29.080Z,10.70
2023-05-01T17:58:56.721Z,10.67
2023-05-01T18:01:25.801Z,10.71
2023-05-01T18:03:54.107Z,10.71
2023-05-01T18:06:22.032Z,10.77
2023-05-01T18:08:50.337Z,10.75
2023-05-01T18:11:18.043Z,10.73
2023-05-01T18:13:48.055Z,10.69
2023-05-01T18:16:16.143Z,10.67
2023-05-01T18:18:45.578Z,10.66
2023-05-01T18:21:13.288Z,10.64
2023-05-01T18:23:41.149Z,10.58
2023-05-01T18:26:08.830Z,10.58
2023-05-01T18:28:36.780Z,10.58
2023-05-01T18:31:04.780Z,10.56
2023-05-01T18:33:32.556Z,10.54
2023-05-01T18:36:01.703Z,10.50
2023-05-01T18:38:29.344Z,10.48
2023-05-01T18:40:57.064Z,10.46
2023-05-01T18:43:26.049Z,10.46
2023-05-01T18:45:53.783Z,10.44
2023-05-01T18:48:21.465Z,10.37
2023-05-01T18:51:04.664Z,10.36
2023-05-01T18:53:36.707Z,10.34
2023-05-01T18:56:05.969Z,10.29
2023-05-01T18:58:33.626Z,10.28
2023-05-01T19:01:01.285Z,10.26
2023-05-01T19:03:29.006Z,10.26
2023-05-01T19:05:56.665Z,10.21
2023-05-01T19:08:24.375Z,10.15
2023-05-01T19:10:54.123Z,10.18
2023-05-01T19:13:21.856Z,10.17
2023-05-01T19:15:49.597Z,10.09
2023-05-01T19:18:17.418Z,10.06
2023-05-01T19:20:45.732Z,10.07
2023-05-01T19:23:13.502Z,10.05
2023-05-01T19:25:41.191Z,10.03
2023-05-01T19:28:10.255Z,9.99
2023-05-01T19:30:37.937Z,10.02
2023-05-01T19:33:06.623Z,9.98
2023-05-01T19:35:35.112Z,9.96
2023-05-01T19:38:02.809Z,9.92
2023-05-01T19:40:30.469Z,9.83
2023-05-01T19:42:58.246Z,9.89
2023-05-01T19:45:27.312Z,9.87
2023-05-01T19:47:55.086Z,9.84
2023-05-01T19:50:22.877Z,9.82
2023-05-01T19:52:50.616Z,9.85
2023-05-01T19:55:18.583Z,9.85
2023-05-01T19:57:46.296Z,9.77
2023-05-01T20:00:14.545Z,9.81
2023-05-01T20:02:43.685Z,9.80
2023-05-01T20:05:13.097Z,9.73
2023-05-01T20:07:41.225Z,9.74
2023-05-01T20:10:10.103Z,9.68
2023-05-01T20:12:38.232Z,9.70
2023-05-01T20:15:06.805Z,9.69
2023-05-01T20:17:35.238Z,9.67
2023-05-01T20:20:04.577Z,9.70
2023-05-01T20:22:32.292Z,9.68
2023-05-01T20:24:59.976Z,9.67
2023-05-01T20:27:27.812Z,9.71
2023-05-01T20:29:55.544Z,9.70
2023-05-01T20:32:23.263Z,9.71
2023-05-01T20:34:52.430Z,9.73
2023-05-01T20:37:21.586Z,9.68
2023-05-01T20:39:49.581Z,9.71
2023-05-01T20:42:17.250Z,9.68
2023-05-01T20:44:44.961Z,9.62
2023-05-01T20:47:13.879Z,9.57
2023-05-01T20:49:41.590Z,9.54
2023-05-01T20:52:09.240Z,9.47
2023-05-01T20:54:38.303Z,9.48
2023-05-01T20:57:06.001Z,9.49
2023-05-01T20:59:33.726Z,9.42
2023-05-01T21:02:04.515Z,9.45
2023-05-01T21:04:32.338Z,9.46
2023-05-01T21:07:00.107Z,9.50
2023-05-01T21:09:27.757Z,9.46
2023-05-01T21:11:56.801Z,9.47
2023-05-01T21:14:24.553Z,9.41
2023-05-01T21:16:52.291Z,9.39
2023-05-01T21:19:20.149Z,9.36
2023-05-01T21:21:47.821Z,9.38
2023-05-01T21:24:21.874Z,9.32
2023-05-01T21:26:49.690Z,9.31
2023-05-01T21:29:19.328Z,9.33
2023-05-01T21:31:48.819Z,9.35
2023-05-01T21:34:19.160Z,9.34
2023-05-01T21:36:46.982Z,9.25
2023-05-01T21:39:15.588Z,9.30
2023-05-01T21:41:43.315Z,9.29
2023-05-01T21:44:11.119Z,9.33
2023-05-01T21:46:40.461Z,9.32
2023-05-01T21:49:08.247Z,9.36
2023-05-01T21:51:35.910Z,9.36
2023-05-01T21:54:05.385Z,9.34
2023-05-01T21:56:33.746Z,9.29
2023-05-01T21:59:02.574Z,9.31
2023-05-01T22:01:30.467Z,9.27
2023-05-01T22:03:59.696Z,9.32
2023-05-01T22:06:30.459Z,9.31
2023-05-01T22:08:58.151Z,9.27
2023-05-01T22:11:26.170Z,9.26
2023-05-01T22:13:53.854Z,9.29
2023-05-01T22:16:21.521Z,9.28
2023-05-01T22:18:50.462Z,9.28
2023-05-01T22:21:20.050Z,9.24
2023-05-01T22:23:47.699Z,9.26
2023-05-01T22:26:15.397Z,9.25
2023-05-01T22:28:43.075Z,9.20
2023-05-01T22:31:10.817Z,9.24
2023-05-01T22:33:38.536Z,9.20
2023-05-01T22:36:07.751Z,9.21
2023-05-01T22:38:37.016Z,9.22
2023-05-01T22:41:04.830Z,9.26
2023-05-01T22:43:32.764Z,9.18
2023-05-01T22:46:00.587Z,9.19
2023-05-01T22:48:28.383Z,9.21
2023-05-01T22:50:56.018Z,9.22
2023-05-01T22:58:34.420Z,9.07
2023-05-01T23:01:02.095Z,9.06
2023-05-01T23:03:32.139Z,9.11
2023-05-01T23:05:59.945Z,9.10
2023-05-01T23:08:28.228Z,9.11
2023-05-01T23:10:56.155Z,9.12
2023-05-01T23:13:23.970Z,9.10
2023-05-01T23:15:53.310Z,9.06
2023-05-01T23:18:24.694Z,9.06
2023-05-01T23:20:53.614Z,9.08
2023-05-01T23:23:22.180Z,9.05
2023-05-01T23:25:50.774Z,9.03
2023-05-01T23:28:22.773Z,9.06
2023-05-01T23:30:56.469Z,8.99
2023-05-01T23:33:25.976Z,9.04
2023-05-01T23:35:53.648Z,9.03
2023-05-01T23:38:21.311Z,9.00
2023-05-01T23:40:49.695Z,9.00
2023-05-01T23:43:17.766Z,8.95
2023-05-01T23:45:45.786Z,9.00
2023-05-01T23:48:15.209Z,8.95
2023-05-01T23:50:42.960Z,8.99
2023-05-01T23:53:10.940Z,8.96
2023-05-01T23:55:39.190Z,8.92
2023-05-01T23:58:06.914Z,8.98
